Sluisgracht — PFBE — position and weather

sailwx.info

Track history (hours):
 
Tides and Currents Weather Stations Pressure Air Temp Water Temp Dewpoint Dewpoint Depression Visibility Wind Speed Wind Dir Waves Ship Positions

Sluisgracht

Last reported at 2017-Apr-16 17:37 UTC. Time now 2017-Apr-25 16:35 UTC.
Position N 60°28' E 019°02'.
Warning: this ship's position is 8 days out of date.

Length 173 m; beam 26 m.

Type: Cargo ship. MMSI: 244903000.

Date/timePositionNaut miles runAvg speedWind from/ knotsBaromVisibWave heightAir tempDewpointWater temp
2017-Apr-16 17:37N 60°28' E 019°02'213.4
2017-Apr-16 17:30N 60°27' E 019°02'816.6
2017-Apr-16 17:00N 60°18' E 019°01'816.6
2017-Apr-16 16:30N 60°11' E 019°07'612.1
2017-Apr-16 16:00N 60°06' E 019°14'611.6
2017-Apr-16 15:30N 60°01' E 019°21'612.2
2017-Apr-16 15:00N 59°57' E 019°29'612.3
2017-Apr-16 14:30N 59°52' E 019°37'2610.5
2017-Apr-16 12:00N 59°30' E 020°06'27112.7 360 / 221013.210.8 1.4-5.4
2017-Apr-15 14:39N 55°41' E 015°34'913.3
2017-Apr-15 13:59N 55°37' E 015°20'813.6
2017-Apr-15 13:25N 55°33' E 015°08'613.8
2017-Apr-15 13:00N 55°30' E 014°59'713.7
2017-Apr-15 12:30N 55°27' E 014°49'713.8
2017-Apr-15 12:01N 55°24' E 014°39'713.3
2017-Apr-15 11:30N 55°18' E 014°31'612.5
2017-Apr-15 11:00N 55°13' E 014°25'612.9
2017-Apr-15 10:30N 55°08' E 014°18'713.5
2017-Apr-15 10:00N 55°03' E 014°10'713.0
2017-Apr-15 09:30N 54°60' E 014°00'713.3
2017-Apr-15 09:00N 54°57' E 013°49'713.3
2017-Apr-15 08:30N 54°55' E 013°38'3313.5
2017-Apr-15 06:01N 54°45' E 012°43'013.7
2017-Apr-15 06:00N 54°45' E 012°43'713.9
2017-Apr-15 05:30N 54°41' E 012°33'1816.2
2017-Apr-15 04:25N 54°27' E 012°14'613.8
2017-Apr-15 04:00N 54°25' E 012°05'714.5
2017-Apr-15 03:30N 54°25' E 011°53'714.1
2017-Apr-15 03:00N 54°27' E 011°41'714.3
2017-Apr-15 02:31N 54°30' E 011°30'714.3
2017-Apr-15 02:00N 54°33' E 011°19'714.7
2017-Apr-15 01:30N 54°36' E 011°08'714.3
2017-Apr-15 01:00N 54°40' E 010°57'612.4
2017-Apr-15 00:30N 54°46' E 010°52'714.1
2017-Apr-15 00:00N 54°53' E 010°53'714.0
2017-Apr-14 23:30N 54°58' E 010°60'714.2
2017-Apr-14 23:00N 55°05' E 011°02'714.0
2017-Apr-14 22:30N 55°12' E 011°06'10912.3
2017-Apr-14 13:38N 56°60' E 011°43'513.1
2017-Apr-14 13:17N 57°04' E 011°40'413.0
2017-Apr-14 12:56N 57°08' E 011°37'613.1
2017-Apr-14 12:29N 57°14' E 011°33'613.2
2017-Apr-14 12:00N 57°20' E 011°30'3224.2
2017-Apr-14 12:00N 57°18' E 011°24'816.0 300 / 121007.710.8 11.8 0.1 8.5
2017-Apr-14 11:30N 57°26' E 011°26'612.3
2017-Apr-14 11:00N 57°31' E 011°19'713.3
2017-Apr-14 10:30N 57°35' E 011°10'713.2
2017-Apr-14 10:00N 57°40' E 011°01'713.3
2017-Apr-14 09:30N 57°44' E 010°52'714.0
2017-Apr-14 09:00N 57°48' E 010°41'714.8
2017-Apr-14 08:30N 57°48' E 010°27'714.8
2017-Apr-14 08:00N 57°47' E 010°13'15613.5
2017-Apr-13 20:29N 55°44' E 007°19'613.2
2017-Apr-13 20:00N 55°37' E 007°19'713.3
2017-Apr-13 19:31N 55°31' E 007°19'713.1
2017-Apr-13 19:01N 55°24' E 007°19'713.1
2017-Apr-13 18:30N 55°17' E 007°20'713.3
2017-Apr-13 18:00N 55°11' E 007°20'713.7
2017-Apr-13 17:30N 55°04' E 007°20'713.4
2017-Apr-13 17:00N 54°57' E 007°20'713.2
2017-Apr-13 16:30N 54°51' E 007°20'713.7
2017-Apr-13 16:00N 54°44' E 007°19'714.1
2017-Apr-13 15:30N 54°37' E 007°19'3612.9
2017-Apr-13 12:44N 54°06' E 007°50'313.6
2017-Apr-13 12:30N 54°05' E 007°55'713.5
2017-Apr-13 12:00N 54°01' E 008°05'714.2
2017-Apr-13 11:30N 54°00' E 008°17'713.2
2017-Apr-13 11:00N 53°59' E 008°28'713.4
2017-Apr-13 10:30N 53°57' E 008°38'713.7
2017-Apr-13 10:00N 53°51' E 008°45'815.5
2017-Apr-13 09:30N 53°51' E 008°58'815.4
2017-Apr-13 09:01N 53°53' E 009°11'611.6
2017-Apr-13 08:31N 53°51' E 009°20'917.7
2017-Apr-13 08:01N 53°43' E 009°28'815.9
2017-Apr-13 07:31N 53°36' E 009°35'714.3
2017-Apr-13 07:00N 53°34' E 009°46'510.9
2017-Apr-13 06:30N 53°32' E 009°55'2 4.0
2017-Apr-13 05:59N 53°31' E 009°58'0 0.0
2017-Apr-13 05:29N 53°31' E 009°58'0 0.0
2017-Apr-13 04:59N 53°31' E 009°58'0 0.0
2017-Apr-13 04:29N 53°31' E 009°58'0 0.0
2017-Apr-13 03:59N 53°31' E 009°58'0 0.0
2017-Apr-13 03:29N 53°31' E 009°58'0 0.0
2017-Apr-13 02:59N 53°31' E 009°58'0 0.0
2017-Apr-13 02:29N 53°31' E 009°58'0 0.0
2017-Apr-13 01:59N 53°31' E 009°58'0 0.0
2017-Apr-13 01:29N 53°31' E 009°58'0 0.0
2017-Apr-13 00:59N 53°31' E 009°58'0 0.0
2017-Apr-13 00:29N 53°31' E 009°58'0 0.0
2017-Apr-12 23:59N 53°31' E 009°58'0 0.0
2017-Apr-12 23:29N 53°31' E 009°58'0 0.0
2017-Apr-12 22:59N 53°31' E 009°58'0 0.0
2017-Apr-12 22:29N 53°31' E 009°58'0 0.0
2017-Apr-12 21:59N 53°31' E 009°58'0 0.0
2017-Apr-12 21:29N 53°31' E 009°58'0 0.0
2017-Apr-12 20:59N 53°31' E 009°58'0 0.0
2017-Apr-12 20:29N 53°31' E 009°58'0 0.0
2017-Apr-12 19:59N 53°31' E 009°58'0 0.0
2017-Apr-12 19:29N 53°31' E 009°58'0 0.0
2017-Apr-12 18:59N 53°31' E 009°58'0 0.0
2017-Apr-12 18:29N 53°31' E 009°58'0 0.0
2017-Apr-12 17:59N 53°31' E 009°58'0 0.0
2017-Apr-12 17:29N 53°31' E 009°58'0 0.0
2017-Apr-12 16:59N 53°31' E 009°58'0 0.0
2017-Apr-12 16:29N 53°31' E 009°58'0 0.0
2017-Apr-12 15:59N 53°31' E 009°58'0 0.0
2017-Apr-12 15:29N 53°31' E 009°58'0 0.0
2017-Apr-12 14:59N 53°31' E 009°58'0 0.0
2017-Apr-12 13:59N 53°31' E 009°58'0 0.0
2017-Apr-12 13:29N 53°31' E 009°58'0 0.0
2017-Apr-12 12:59N 53°31' E 009°58'0 0.0
2017-Apr-12 12:29N 53°31' E 009°58'0 0.0
2017-Apr-12 11:59N 53°31' E 009°58'0 0.0
2017-Apr-12 11:29N 53°31' E 009°58'0 0.0
2017-Apr-12 10:59N 53°31' E 009°58'0 0.0
2017-Apr-12 10:29N 53°31' E 009°58'0 0.0
2017-Apr-12 09:58N 53°31' E 009°58'0 0.0
2017-Apr-12 09:28N 53°31' E 009°58'0 0.0
2017-Apr-12 08:58N 53°31' E 009°58'0 0.0
2017-Apr-12 08:28N 53°31' E 009°58'0 0.0
2017-Apr-12 07:58N 53°31' E 009°58'0 0.0
2017-Apr-12 07:28N 53°31' E 009°58'0 0.0
2017-Apr-12 06:58N 53°31' E 009°58'0 0.0
2017-Apr-12 06:25N 53°31' E 009°58'0 0.0
2017-Apr-12 05:58N 53°31' E 009°58'0 0.0
2017-Apr-12 05:28N 53°31' E 009°58'0 0.0
2017-Apr-12 04:58N 53°31' E 009°58'0 0.0
2017-Apr-12 04:28N 53°31' E 009°58'0 0.0
2017-Apr-12 03:58N 53°31' E 009°58'0 0.0
2017-Apr-12 03:28N 53°31' E 009°58'0 0.0
2017-Apr-12 02:58N 53°31' E 009°58'0 0.0
2017-Apr-12 02:28N 53°31' E 009°58'0 0.0
2017-Apr-12 01:58N 53°31' E 009°58'0 0.0
2017-Apr-12 01:28N 53°31' E 009°58'0 0.0
2017-Apr-12 00:58N 53°31' E 009°58'0 0.0
2017-Apr-12 00:28N 53°31' E 009°58'0 0.6
2017-Apr-12 00:00N 53°32' E 009°58'3 6.1
2017-Apr-11 23:30N 53°33' E 009°53'4 8.9
2017-Apr-11 23:00N 53°34' E 009°45'714.2
2017-Apr-11 22:30N 53°36' E 009°35'713.1
2017-Apr-11 22:01N 53°42' E 009°29'714.9
2017-Apr-11 21:30N 53°48' E 009°22'714.9
2017-Apr-11 21:00N 53°53' E 009°12'5 9.4
2017-Apr-11 20:31N 53°52' E 009°04'714.3
2017-Apr-11 20:00N 53°50' E 008°52'611.3
2017-Apr-11 19:30N 53°52' E 008°43'611.3
2017-Apr-11 19:00N 53°57' E 008°38'815.1
2017-Apr-11 18:30N 53°59' E 008°25'713.7
2017-Apr-11 18:00N 53°60' E 008°14'510.8
2017-Apr-11 17:30N 53°59' E 008°05'817.0
2017-Apr-11 17:00N 53°57' E 007°51'10716.6
2017-Apr-11 10:34N 53°28' E 004°57'116.9
2017-Apr-11 10:30N 53°28' E 004°56'2215.7
2017-Apr-11 09:06N 53°11' E 004°32'216.8
2017-Apr-11 09:00N 53°09' E 004°30'816.7
2017-Apr-11 08:30N 53°02' E 004°23'816.8
2017-Apr-11 08:00N 52°55' E 004°17'917.0
2017-Apr-11 07:30N 52°48' E 004°09'917.4
2017-Apr-11 07:00N 52°41' E 003°59'917.6
2017-Apr-11 06:30N 52°34' E 003°50'917.8
2017-Apr-11 06:00N 52°28' E 003°40'917.7
2017-Apr-11 05:29N 52°20' E 003°33'2818.3
2017-Apr-11 03:57N 51°53' E 003°22'918.1
2017-Apr-11 03:28N 51°44' E 003°16'715.8
2017-Apr-11 03:00N 51°38' E 003°21'815.2
2017-Apr-11 02:30N 51°31' E 003°26'714.1
2017-Apr-11 02:00N 51°26' E 003°35'5 9.1
2017-Apr-11 01:30N 51°27' E 003°42'1 2.0
2017-Apr-11 01:00N 51°27' E 003°43'0 0.0
2017-Apr-11 00:24N 51°27' E 003°43'0 0.0
2017-Apr-11 00:00N 51°27' E 003°43'0 0.0
2017-Apr-10 23:12N 51°27' E 003°43'0 0.0
2017-Apr-10 22:54N 51°27' E 003°43'0 0.0
2017-Apr-10 22:30N 51°27' E 003°43'0 0.0
2017-Apr-10 22:00N 51°27' E 003°43'0 0.0
2017-Apr-10 21:30N 51°27' E 003°43'0 0.0
2017-Apr-10 20:54N 51°27' E 003°43'0 0.0
2017-Apr-10 20:30N 51°27' E 003°43'0 0.0
2017-Apr-10 20:00N 51°27' E 003°43'0 0.0
2017-Apr-10 19:30N 51°27' E 003°43'0 0.0
2017-Apr-10 19:00N 51°27' E 003°43'0 0.0
2017-Apr-10 18:30N 51°27' E 003°43'0 0.0
2017-Apr-10 18:00N 51°27' E 003°43'0 0.0
2017-Apr-10 17:12N 51°27' E 003°43'0 0.0
2017-Apr-10 17:00N 51°27' E 003°43'0 0.0
2017-Apr-10 16:18N 51°27' E 003°43'0 0.0
2017-Apr-10 16:00N 51°27' E 003°43'0 0.0
2017-Apr-10 15:30N 51°27' E 003°43'0 0.0
2017-Apr-10 15:00N 51°27' E 003°43'0 0.0
2017-Apr-10 14:30N 51°27' E 003°43'0 0.0
2017-Apr-10 13:24N 51°27' E 003°43'0 0.0
2017-Apr-10 12:48N 51°27' E 003°43'0 0.0
2017-Apr-10 12:30N 51°27' E 003°43'0 0.0
2017-Apr-10 12:00N 51°27' E 003°43'0 0.0
2017-Apr-10 11:30N 51°27' E 003°43'0 0.0
2017-Apr-10 11:00N 51°27' E 003°43'0 0.0
2017-Apr-10 10:29N 51°27' E 003°43'0 0.0
2017-Apr-10 09:59N 51°27' E 003°43'0 0.0
2017-Apr-10 09:29N 51°27' E 003°43'0 0.0
2017-Apr-10 08:59N 51°27' E 003°43'0 0.0
2017-Apr-10 08:29N 51°27' E 003°43'0 0.0
2017-Apr-10 07:59N 51°27' E 003°43'0 0.0
2017-Apr-10 07:29N 51°27' E 003°43'0 0.0
2017-Apr-10 06:59N 51°27' E 003°43'0 0.0
2017-Apr-10 06:29N 51°27' E 003°43'0 0.0
2017-Apr-10 05:59N 51°27' E 003°43'0 0.0
2017-Apr-10 05:29N 51°27' E 003°43'0 0.0
2017-Apr-10 04:59N 51°27' E 003°43'0 0.0
2017-Apr-10 04:29N 51°27' E 003°43'0 0.0
2017-Apr-10 03:59N 51°27' E 003°43'0 0.0
2017-Apr-10 03:29N 51°27' E 003°43'0 0.0
2017-Apr-10 02:59N 51°27' E 003°43'0 0.0
2017-Apr-10 02:23N 51°27' E 003°43'0 0.0
2017-Apr-10 01:53N 51°27' E 003°43'0 0.0
2017-Apr-10 01:29N 51°27' E 003°43'0 0.0
2017-Apr-10 00:59N 51°27' E 003°43'0 0.0
2017-Apr-10 00:29N 51°27' E 003°43'0 0.0
2017-Apr-09 23:59N 51°27' E 003°43'0 0.0
2017-Apr-09 23:29N 51°27' E 003°43'0 0.0
2017-Apr-09 22:59N 51°27' E 003°43'0 0.0
2017-Apr-09 22:29N 51°27' E 003°43'0 0.0
2017-Apr-09 21:59N 51°27' E 003°43'0 0.0
2017-Apr-09 21:29N 51°27' E 003°43'0 0.0
2017-Apr-09 20:59N 51°27' E 003°43'0 0.0
2017-Apr-09 20:29N 51°27' E 003°43'0 0.0
2017-Apr-09 19:59N 51°27' E 003°43'0 0.0
2017-Apr-09 19:29N 51°27' E 003°43'0 0.0
2017-Apr-09 18:59N 51°27' E 003°43'0 0.0
2017-Apr-09 18:29N 51°27' E 003°43'0 0.0
2017-Apr-09 17:53N 51°27' E 003°43'0 0.0
2017-Apr-09 17:29N 51°27' E 003°43'0 0.0
2017-Apr-09 16:59N 51°27' E 003°43'0 0.0
2017-Apr-09 16:29N 51°27' E 003°43'0 0.0
2017-Apr-09 15:59N 51°27' E 003°43'0 0.0
2017-Apr-09 15:23N 51°27' E 003°43'0 0.0
2017-Apr-09 14:59N 51°27' E 003°43'0 0.0
2017-Apr-09 13:59N 51°27' E 003°43'0 0.0
2017-Apr-09 13:29N 51°27' E 003°43'0 0.0
2017-Apr-09 12:59N 51°27' E 003°43'0 0.0
2017-Apr-09 12:29N 51°27' E 003°43'0 0.0
2017-Apr-09 11:59N 51°27' E 003°43'0 0.0
2017-Apr-09 11:23N 51°27' E 003°43'0 0.0
2017-Apr-09 10:53N 51°27' E 003°43'0 0.0
2017-Apr-09 10:23N 51°27' E 003°43'0 0.1
2017-Apr-09 10:00N 51°27' E 003°43'0 0.6
2017-Apr-09 09:30N 51°27' E 003°43'4 7.1
2017-Apr-09 09:00N 51°26' E 003°37'918.3
2017-Apr-09 08:30N 51°24' E 003°23'917.1
2017-Apr-09 08:00N 51°24' E 003°09'815.6
2017-Apr-09 07:30N 51°23' E 002°57'816.1
2017-Apr-09 07:00N 51°21' E 002°44'612.8
2017-Apr-09 06:30N 51°22' E 002°34'713.8
2017-Apr-09 06:01N 51°20' E 002°23'713.3
2017-Apr-09 05:30N 51°17' E 002°14'612.8
2017-Apr-09 05:00N 51°14' E 002°05'612.9
2017-Apr-09 04:30N 51°10' E 001°56'713.3
2017-Apr-09 04:00N 51°07' E 001°47'713.1
2017-Apr-09 03:30N 51°02' E 001°40'714.1
2017-Apr-09 03:01N 50°57' E 001°33'816.5
2017-Apr-09 02:31N 50°49' E 001°27'917.5
2017-Apr-09 02:01N 50°41' E 001°21'917.2
2017-Apr-09 01:31N 50°36' E 001°11'917.1
2017-Apr-09 01:00N 50°30' E 001°01'816.8
2017-Apr-09 00:30N 50°27' E 000°49'816.8
2017-Apr-09 00:01N 50°25' E 000°36'816.6
2017-Apr-08 23:30N 50°23' E 000°23'816.2
2017-Apr-08 23:00N 50°21' E 000°11'816.6
2017-Apr-08 22:30N 50°19' W 000°02'816.9
2017-Apr-08 22:00N 50°17' W 000°14'917.3
2017-Apr-08 21:30N 50°15' W 000°27'917.9
2017-Apr-08 21:00N 50°12' W 000°41'918.6
2017-Apr-08 20:30N 50°09' W 000°55'1019.2
2017-Apr-08 20:00N 50°06' W 001°09'1019.6
2017-Apr-08 19:30N 50°04' W 001°24'1019.9
2017-Apr-08 19:00N 50°01' W 001°39'1020.3
2017-Apr-08 18:30N 49°59' W 001°54'1020.5
2017-Apr-08 18:00N 49°57' W 002°10'1719.1
2017-Apr-08 17:06N 49°52' W 002°36'318.5
2017-Apr-08 16:56N 49°51' W 002°40'818.3
2017-Apr-08 16:29N 49°49' W 002°53'3017.9
2017-Apr-08 14:47N 49°35' W 003°34'917.9
2017-Apr-08 14:17N 49°30' W 003°46'1717.9
2017-Apr-08 13:21N 49°22' W 004°08'717.7
2017-Apr-08 12:57N 49°18' W 004°17'917.7
2017-Apr-08 12:26N 49°14' W 004°29'817.5
2017-Apr-08 11:58N 49°10' W 004°40'817.3
2017-Apr-08 11:30N 49°06' W 004°51'917.1
2017-Apr-08 11:00N 49°02' W 005°02'816.9
2017-Apr-08 10:30N 48°57' W 005°13'816.7
2017-Apr-08 10:00N 48°53' W 005°24'816.5
2017-Apr-08 09:31N 48°48' W 005°35'1116.1
2017-Apr-08 08:49N 48°39' W 005°45'516.6
2017-Apr-08 08:30N 48°35' W 005°48'815.7
2017-Apr-08 08:00N 48°27' W 005°48'1817.4
2017-Apr-08 06:57N 48°11' W 005°34'1117.3
2017-Apr-08 06:20N 48°02' W 005°26'617.1
2017-Apr-08 06:00N 47°57' W 005°22'817.2
2017-Apr-08 05:31N 47°51' W 005°12'917.9
2017-Apr-08 05:01N 47°46' W 005°01'917.7
2017-Apr-08 04:30N 47°41' W 004°51'917.8
2017-Apr-08 04:00N 47°36' W 004°40'1218.1
2017-Apr-08 03:20N 47°29' W 004°25'617.6
2017-Apr-08 03:00N 47°25' W 004°18'917.9
2017-Apr-08 02:30N 47°20' W 004°08'917.9
2017-Apr-08 02:00N 47°14' W 003°57'918.0
2017-Apr-08 01:31N 47°09' W 003°47'917.9
2017-Apr-08 01:01N 47°04' W 003°36'917.9
2017-Apr-08 00:30N 46°59' W 003°25'917.9
2017-Apr-08 00:01N 46°54' W 003°14'917.9
2017-Apr-07 23:30N 46°49' W 003°03'1018.4
2017-Apr-07 22:59N 46°43' W 002°52'1018.0
2017-Apr-07 22:26N 46°38' W 002°40'817.5
2017-Apr-07 21:59N 46°33' W 002°30'917.9
2017-Apr-07 21:30N 46°29' W 002°20'917.8
2017-Apr-07 21:00N 46°23' W 002°10'917.8
2017-Apr-07 20:30N 46°18' W 001°59'917.8
2017-Apr-07 20:00N 46°13' W 001°49'917.2
2017-Apr-07 19:30N 46°08' W 001°39'918.7
2017-Apr-07 19:00N 46°07' W 001°25'714.4
2017-Apr-07 18:30N 46°08' W 001°15'2 3.0
2017-Apr-07 18:00N 46°09' W 001°14'0 0.0
2017-Apr-07 17:30N 46°09' W 001°14'0 0.0
2017-Apr-07 17:00N 46°09' W 001°14'0 0.0
2017-Apr-07 16:29N 46°09' W 001°14'0 0.0
2017-Apr-07 15:59N 46°09' W 001°14'0 0.0
2017-Apr-07 15:29N 46°09' W 001°14'0 0.0
2017-Apr-07 14:59N 46°09' W 001°14'0 0.0
2017-Apr-07 13:59N 46°09' W 001°14'0 0.0
2017-Apr-07 13:29N 46°09' W 001°14'0 0.0
2017-Apr-07 12:59N 46°09' W 001°14'0 0.0
2017-Apr-07 12:29N 46°09' W 001°14'0 0.0
2017-Apr-07 11:59N 46°09' W 001°14'0 0.1
2017-Apr-07 11:31N 46°09' W 001°14'2 4.9
2017-Apr-07 11:01N 46°07' W 001°15'611.6
2017-Apr-07 10:30N 46°06' W 001°24'918.1
2017-Apr-07 10:00N 46°08' W 001°37'917.4
2017-Apr-07 09:30N 46°07' W 001°49'917.3
2017-Apr-07 09:00N 46°06' W 002°02'6417.0
2017-Apr-07 05:12N 45°55' W 003°33'2217.0
2017-Apr-07 03:55N 45°52' W 004°04'  
Track history (hours):
 
Tides and Currents Weather Stations Pressure Air Temp Water Temp Dewpoint Dewpoint Depression Visibility Wind Speed Wind Dir Waves Ship Positions

Sluisgracht

Last reported at 2017-Apr-16 17:37 UTC. Time now 2017-Apr-25 16:35 UTC.
Position N 60°28' E 019°02'.
Warning: this ship's position is 8 days out of date.

Length 173 m; beam 26 m.

Type: Cargo ship. MMSI: 244903000.

Date/timePositionNaut miles runAvg speedWind from/ knotsBaromVisibWave heightAir tempDewpointWater temp
2017-Apr-16 17:37N 60°28' E 019°02'213.4
2017-Apr-16 17:30N 60°27' E 019°02'816.6
2017-Apr-16 17:00N 60°18' E 019°01'816.6
2017-Apr-16 16:30N 60°11' E 019°07'612.1
2017-Apr-16 16:00N 60°06' E 019°14'611.6
2017-Apr-16 15:30N 60°01' E 019°21'612.2
2017-Apr-16 15:00N 59°57' E 019°29'612.3
2017-Apr-16 14:30N 59°52' E 019°37'2610.5
2017-Apr-16 12:00N 59°30' E 020°06'27112.7 360 / 221013.210.8 1.4-5.4
2017-Apr-15 14:39N 55°41' E 015°34'913.3
2017-Apr-15 13:59N 55°37' E 015°20'813.6
2017-Apr-15 13:25N 55°33' E 015°08'613.8
2017-Apr-15 13:00N 55°30' E 014°59'713.7
2017-Apr-15 12:30N 55°27' E 014°49'713.8
2017-Apr-15 12:01N 55°24' E 014°39'713.3
2017-Apr-15 11:30N 55°18' E 014°31'612.5
2017-Apr-15 11:00N 55°13' E 014°25'612.9
2017-Apr-15 10:30N 55°08' E 014°18'713.5
2017-Apr-15 10:00N 55°03' E 014°10'713.0
2017-Apr-15 09:30N 54°60' E 014°00'713.3
2017-Apr-15 09:00N 54°57' E 013°49'713.3
2017-Apr-15 08:30N 54°55' E 013°38'3313.5
2017-Apr-15 06:01N 54°45' E 012°43'013.7
2017-Apr-15 06:00N 54°45' E 012°43'713.9
2017-Apr-15 05:30N 54°41' E 012°33'1816.2
2017-Apr-15 04:25N 54°27' E 012°14'613.8
2017-Apr-15 04:00N 54°25' E 012°05'714.5
2017-Apr-15 03:30N 54°25' E 011°53'714.1
2017-Apr-15 03:00N 54°27' E 011°41'714.3
2017-Apr-15 02:31N 54°30' E 011°30'714.3
2017-Apr-15 02:00N 54°33' E 011°19'714.7
2017-Apr-15 01:30N 54°36' E 011°08'714.3
2017-Apr-15 01:00N 54°40' E 010°57'612.4
2017-Apr-15 00:30N 54°46' E 010°52'714.1
2017-Apr-15 00:00N 54°53' E 010°53'714.0
2017-Apr-14 23:30N 54°58' E 010°60'714.2
2017-Apr-14 23:00N 55°05' E 011°02'714.0
2017-Apr-14 22:30N 55°12' E 011°06'10912.3
2017-Apr-14 13:38N 56°60' E 011°43'513.1
2017-Apr-14 13:17N 57°04' E 011°40'413.0
2017-Apr-14 12:56N 57°08' E 011°37'613.1
2017-Apr-14 12:29N 57°14' E 011°33'613.2
2017-Apr-14 12:00N 57°20' E 011°30'3224.2
2017-Apr-14 12:00N 57°18' E 011°24'816.0 300 / 121007.710.8 11.8 0.1 8.5
2017-Apr-14 11:30N 57°26' E 011°26'612.3
2017-Apr-14 11:00N 57°31' E 011°19'713.3
2017-Apr-14 10:30N 57°35' E 011°10'713.2
2017-Apr-14 10:00N 57°40' E 011°01'713.3
2017-Apr-14 09:30N 57°44' E 010°52'714.0
2017-Apr-14 09:00N 57°48' E 010°41'714.8
2017-Apr-14 08:30N 57°48' E 010°27'714.8
2017-Apr-14 08:00N 57°47' E 010°13'15613.5
2017-Apr-13 20:29N 55°44' E 007°19'613.2
2017-Apr-13 20:00N 55°37' E 007°19'713.3
2017-Apr-13 19:31N 55°31' E 007°19'713.1
2017-Apr-13 19:01N 55°24' E 007°19'713.1
2017-Apr-13 18:30N 55°17' E 007°20'713.3
2017-Apr-13 18:00N 55°11' E 007°20'713.7
2017-Apr-13 17:30N 55°04' E 007°20'713.4
2017-Apr-13 17:00N 54°57' E 007°20'713.2
2017-Apr-13 16:30N 54°51' E 007°20'713.7
2017-Apr-13 16:00N 54°44' E 007°19'714.1
2017-Apr-13 15:30N 54°37' E 007°19'3612.9
2017-Apr-13 12:44N 54°06' E 007°50'313.6
2017-Apr-13 12:30N 54°05' E 007°55'713.5
2017-Apr-13 12:00N 54°01' E 008°05'714.2
2017-Apr-13 11:30N 54°00' E 008°17'713.2
2017-Apr-13 11:00N 53°59' E 008°28'713.4
2017-Apr-13 10:30N 53°57' E 008°38'713.7
2017-Apr-13 10:00N 53°51' E 008°45'815.5
2017-Apr-13 09:30N 53°51' E 008°58'815.4
2017-Apr-13 09:01N 53°53' E 009°11'611.6
2017-Apr-13 08:31N 53°51' E 009°20'917.7
2017-Apr-13 08:01N 53°43' E 009°28'815.9
2017-Apr-13 07:31N 53°36' E 009°35'714.3
2017-Apr-13 07:00N 53°34' E 009°46'510.9
2017-Apr-13 06:30N 53°32' E 009°55'2 4.0
2017-Apr-13 05:59N 53°31' E 009°58'0 0.0
2017-Apr-13 05:29N 53°31' E 009°58'0 0.0
2017-Apr-13 04:59N 53°31' E 009°58'0 0.0
2017-Apr-13 04:29N 53°31' E 009°58'0 0.0
2017-Apr-13 03:59N 53°31' E 009°58'0 0.0
2017-Apr-13 03:29N 53°31' E 009°58'0 0.0
2017-Apr-13 02:59N 53°31' E 009°58'0 0.0
2017-Apr-13 02:29N 53°31' E 009°58'0 0.0
2017-Apr-13 01:59N 53°31' E 009°58'0 0.0
2017-Apr-13 01:29N 53°31' E 009°58'0 0.0
2017-Apr-13 00:59N 53°31' E 009°58'0 0.0
2017-Apr-13 00:29N 53°31' E 009°58'0 0.0
2017-Apr-12 23:59N 53°31' E 009°58'0 0.0
2017-Apr-12 23:29N 53°31' E 009°58'0 0.0
2017-Apr-12 22:59N 53°31' E 009°58'0 0.0
2017-Apr-12 22:29N 53°31' E 009°58'0 0.0
2017-Apr-12 21:59N 53°31' E 009°58'0 0.0
2017-Apr-12 21:29N 53°31' E 009°58'0 0.0
2017-Apr-12 20:59N 53°31' E 009°58'0 0.0
2017-Apr-12 20:29N 53°31' E 009°58'0 0.0
2017-Apr-12 19:59N 53°31' E 009°58'0 0.0
2017-Apr-12 19:29N 53°31' E 009°58'0 0.0
2017-Apr-12 18:59N 53°31' E 009°58'0 0.0
2017-Apr-12 18:29N 53°31' E 009°58'0 0.0
2017-Apr-12 17:59N 53°31' E 009°58'0 0.0
2017-Apr-12 17:29N 53°31' E 009°58'0 0.0
2017-Apr-12 16:59N 53°31' E 009°58'0 0.0
2017-Apr-12 16:29N 53°31' E 009°58'0 0.0
2017-Apr-12 15:59N 53°31' E 009°58'0 0.0
2017-Apr-12 15:29N 53°31' E 009°58'0 0.0
2017-Apr-12 14:59N 53°31' E 009°58'0 0.0
2017-Apr-12 13:59N 53°31' E 009°58'0 0.0
2017-Apr-12 13:29N 53°31' E 009°58'0 0.0
2017-Apr-12 12:59N 53°31' E 009°58'0 0.0
2017-Apr-12 12:29N 53°31' E 009°58'0 0.0
2017-Apr-12 11:59N 53°31' E 009°58'0 0.0
2017-Apr-12 11:29N 53°31' E 009°58'0 0.0
2017-Apr-12 10:59N 53°31' E 009°58'0 0.0
2017-Apr-12 10:29N 53°31' E 009°58'0 0.0
2017-Apr-12 09:58N 53°31' E 009°58'0 0.0
2017-Apr-12 09:28N 53°31' E 009°58'0 0.0
2017-Apr-12 08:58N 53°31' E 009°58'0 0.0
2017-Apr-12 08:28N 53°31' E 009°58'0 0.0
2017-Apr-12 07:58N 53°31' E 009°58'0 0.0
2017-Apr-12 07:28N 53°31' E 009°58'0 0.0
2017-Apr-12 06:58N 53°31' E 009°58'0 0.0
2017-Apr-12 06:25N 53°31' E 009°58'0 0.0
2017-Apr-12 05:58N 53°31' E 009°58'0 0.0
2017-Apr-12 05:28N 53°31' E 009°58'0 0.0
2017-Apr-12 04:58N 53°31' E 009°58'0 0.0
2017-Apr-12 04:28N 53°31' E 009°58'0 0.0
2017-Apr-12 03:58N 53°31' E 009°58'0 0.0
2017-Apr-12 03:28N 53°31' E 009°58'0 0.0
2017-Apr-12 02:58N 53°31' E 009°58'0 0.0
2017-Apr-12 02:28N 53°31' E 009°58'0 0.0
2017-Apr-12 01:58N 53°31' E 009°58'0 0.0
2017-Apr-12 01:28N 53°31' E 009°58'0 0.0
2017-Apr-12 00:58N 53°31' E 009°58'0 0.0
2017-Apr-12 00:28N 53°31' E 009°58'0 0.6
2017-Apr-12 00:00N 53°32' E 009°58'3 6.1
2017-Apr-11 23:30N 53°33' E 009°53'4 8.9
2017-Apr-11 23:00N 53°34' E 009°45'714.2
2017-Apr-11 22:30N 53°36' E 009°35'713.1
2017-Apr-11 22:01N 53°42' E 009°29'714.9
2017-Apr-11 21:30N 53°48' E 009°22'714.9
2017-Apr-11 21:00N 53°53' E 009°12'5 9.4
2017-Apr-11 20:31N 53°52' E 009°04'714.3
2017-Apr-11 20:00N 53°50' E 008°52'611.3
2017-Apr-11 19:30N 53°52' E 008°43'611.3
2017-Apr-11 19:00N 53°57' E 008°38'815.1
2017-Apr-11 18:30N 53°59' E 008°25'713.7
2017-Apr-11 18:00N 53°60' E 008°14'510.8
2017-Apr-11 17:30N 53°59' E 008°05'817.0
2017-Apr-11 17:00N 53°57' E 007°51'10716.6
2017-Apr-11 10:34N 53°28' E 004°57'116.9
2017-Apr-11 10:30N 53°28' E 004°56'2215.7
2017-Apr-11 09:06N 53°11' E 004°32'216.8
2017-Apr-11 09:00N 53°09' E 004°30'816.7
2017-Apr-11 08:30N 53°02' E 004°23'816.8
2017-Apr-11 08:00N 52°55' E 004°17'917.0
2017-Apr-11 07:30N 52°48' E 004°09'917.4
2017-Apr-11 07:00N 52°41' E 003°59'917.6
2017-Apr-11 06:30N 52°34' E 003°50'917.8
2017-Apr-11 06:00N 52°28' E 003°40'917.7
2017-Apr-11 05:29N 52°20' E 003°33'2818.3
2017-Apr-11 03:57N 51°53' E 003°22'918.1
2017-Apr-11 03:28N 51°44' E 003°16'715.8
2017-Apr-11 03:00N 51°38' E 003°21'815.2
2017-Apr-11 02:30N 51°31' E 003°26'714.1
2017-Apr-11 02:00N 51°26' E 003°35'5 9.1
2017-Apr-11 01:30N 51°27' E 003°42'1 2.0
2017-Apr-11 01:00N 51°27' E 003°43'0 0.0
2017-Apr-11 00:24N 51°27' E 003°43'0 0.0
2017-Apr-11 00:00N 51°27' E 003°43'0 0.0
2017-Apr-10 23:12N 51°27' E 003°43'0 0.0
2017-Apr-10 22:54N 51°27' E 003°43'0 0.0
2017-Apr-10 22:30N 51°27' E 003°43'0 0.0
2017-Apr-10 22:00N 51°27' E 003°43'0 0.0
2017-Apr-10 21:30N 51°27' E 003°43'0 0.0
2017-Apr-10 20:54N 51°27' E 003°43'0 0.0
2017-Apr-10 20:30N 51°27' E 003°43'0 0.0
2017-Apr-10 20:00N 51°27' E 003°43'0 0.0
2017-Apr-10 19:30N 51°27' E 003°43'0 0.0
2017-Apr-10 19:00N 51°27' E 003°43'0 0.0
2017-Apr-10 18:30N 51°27' E 003°43'0 0.0
2017-Apr-10 18:00N 51°27' E 003°43'0 0.0
2017-Apr-10 17:12N 51°27' E 003°43'0 0.0
2017-Apr-10 17:00N 51°27' E 003°43'0 0.0
2017-Apr-10 16:18N 51°27' E 003°43'0 0.0
2017-Apr-10 16:00N 51°27' E 003°43'0 0.0
2017-Apr-10 15:30N 51°27' E 003°43'0 0.0
2017-Apr-10 15:00N 51°27' E 003°43'0 0.0
2017-Apr-10 14:30N 51°27' E 003°43'0 0.0
2017-Apr-10 13:24N 51°27' E 003°43'0 0.0
2017-Apr-10 12:48N 51°27' E 003°43'0 0.0
2017-Apr-10 12:30N 51°27' E 003°43'0 0.0
2017-Apr-10 12:00N 51°27' E 003°43'0 0.0
2017-Apr-10 11:30N 51°27' E 003°43'0 0.0
2017-Apr-10 11:00N 51°27' E 003°43'0 0.0
2017-Apr-10 10:29N 51°27' E 003°43'0 0.0
2017-Apr-10 09:59N 51°27' E 003°43'0 0.0
2017-Apr-10 09:29N 51°27' E 003°43'0 0.0
2017-Apr-10 08:59N 51°27' E 003°43'0 0.0
2017-Apr-10 08:29N 51°27' E 003°43'0 0.0
2017-Apr-10 07:59N 51°27' E 003°43'0 0.0
2017-Apr-10 07:29N 51°27' E 003°43'0 0.0
2017-Apr-10 06:59N 51°27' E 003°43'0 0.0
2017-Apr-10 06:29N 51°27' E 003°43'0 0.0
2017-Apr-10 05:59N 51°27' E 003°43'0 0.0
2017-Apr-10 05:29N 51°27' E 003°43'0 0.0
2017-Apr-10 04:59N 51°27' E 003°43'0 0.0
2017-Apr-10 04:29N 51°27' E 003°43'0 0.0
2017-Apr-10 03:59N 51°27' E 003°43'0 0.0
2017-Apr-10 03:29N 51°27' E 003°43'0 0.0
2017-Apr-10 02:59N 51°27' E 003°43'0 0.0
2017-Apr-10 02:23N 51°27' E 003°43'0 0.0
2017-Apr-10 01:53N 51°27' E 003°43'0 0.0
2017-Apr-10 01:29N 51°27' E 003°43'0 0.0
2017-Apr-10 00:59N 51°27' E 003°43'0 0.0
2017-Apr-10 00:29N 51°27' E 003°43'0 0.0
2017-Apr-09 23:59N 51°27' E 003°43'0 0.0
2017-Apr-09 23:29N 51°27' E 003°43'0 0.0
2017-Apr-09 22:59N 51°27' E 003°43'0 0.0
2017-Apr-09 22:29N 51°27' E 003°43'0 0.0
2017-Apr-09 21:59N 51°27' E 003°43'0 0.0
2017-Apr-09 21:29N 51°27' E 003°43'0 0.0
2017-Apr-09 20:59N 51°27' E 003°43'0 0.0
2017-Apr-09 20:29N 51°27' E 003°43'0 0.0
2017-Apr-09 19:59N 51°27' E 003°43'0 0.0
2017-Apr-09 19:29N 51°27' E 003°43'0 0.0
2017-Apr-09 18:59N 51°27' E 003°43'0 0.0
2017-Apr-09 18:29N 51°27' E 003°43'0 0.0
2017-Apr-09 17:53N 51°27' E 003°43'0 0.0
2017-Apr-09 17:29N 51°27' E 003°43'0 0.0
2017-Apr-09 16:59N 51°27' E 003°43'0 0.0
2017-Apr-09 16:29N 51°27' E 003°43'0 0.0
2017-Apr-09 15:59N 51°27' E 003°43'0 0.0
2017-Apr-09 15:23N 51°27' E 003°43'0 0.0
2017-Apr-09 14:59N 51°27' E 003°43'0 0.0
2017-Apr-09 13:59N 51°27' E 003°43'0 0.0
2017-Apr-09 13:29N 51°27' E 003°43'0 0.0
2017-Apr-09 12:59N 51°27' E 003°43'0 0.0
2017-Apr-09 12:29N 51°27' E 003°43'0 0.0
2017-Apr-09 11:59N 51°27' E 003°43'0 0.0
2017-Apr-09 11:23N 51°27' E 003°43'0 0.0
2017-Apr-09 10:53N 51°27' E 003°43'0 0.0
2017-Apr-09 10:23N 51°27' E 003°43'0 0.1
2017-Apr-09 10:00N 51°27' E 003°43'0 0.6
2017-Apr-09 09:30N 51°27' E 003°43'4 7.1
2017-Apr-09 09:00N 51°26' E 003°37'918.3
2017-Apr-09 08:30N 51°24' E 003°23'917.1
2017-Apr-09 08:00N 51°24' E 003°09'815.6
2017-Apr-09 07:30N 51°23' E 002°57'816.1
2017-Apr-09 07:00N 51°21' E 002°44'612.8
2017-Apr-09 06:30N 51°22' E 002°34'713.8
2017-Apr-09 06:01N 51°20' E 002°23'713.3
2017-Apr-09 05:30N 51°17' E 002°14'612.8
2017-Apr-09 05:00N 51°14' E 002°05'612.9
2017-Apr-09 04:30N 51°10' E 001°56'713.3
2017-Apr-09 04:00N 51°07' E 001°47'713.1
2017-Apr-09 03:30N 51°02' E 001°40'714.1
2017-Apr-09 03:01N 50°57' E 001°33'816.5
2017-Apr-09 02:31N 50°49' E 001°27'917.5
2017-Apr-09 02:01N 50°41' E 001°21'917.2
2017-Apr-09 01:31N 50°36' E 001°11'917.1
2017-Apr-09 01:00N 50°30' E 001°01'816.8
2017-Apr-09 00:30N 50°27' E 000°49'816.8
2017-Apr-09 00:01N 50°25' E 000°36'816.6
2017-Apr-08 23:30N 50°23' E 000°23'816.2
2017-Apr-08 23:00N 50°21' E 000°11'816.6
2017-Apr-08 22:30N 50°19' W 000°02'816.9
2017-Apr-08 22:00N 50°17' W 000°14'917.3
2017-Apr-08 21:30N 50°15' W 000°27'917.9
2017-Apr-08 21:00N 50°12' W 000°41'918.6
2017-Apr-08 20:30N 50°09' W 000°55'1019.2
2017-Apr-08 20:00N 50°06' W 001°09'1019.6
2017-Apr-08 19:30N 50°04' W 001°24'1019.9
2017-Apr-08 19:00N 50°01' W 001°39'1020.3
2017-Apr-08 18:30N 49°59' W 001°54'1020.5
2017-Apr-08 18:00N 49°57' W 002°10'1719.1
2017-Apr-08 17:06N 49°52' W 002°36'318.5
2017-Apr-08 16:56N 49°51' W 002°40'818.3
2017-Apr-08 16:29N 49°49' W 002°53'3017.9
2017-Apr-08 14:47N 49°35' W 003°34'917.9
2017-Apr-08 14:17N 49°30' W 003°46'1717.9
2017-Apr-08 13:21N 49°22' W 004°08'717.7
2017-Apr-08 12:57N 49°18' W 004°17'917.7
2017-Apr-08 12:26N 49°14' W 004°29'817.5
2017-Apr-08 11:58N 49°10' W 004°40'817.3
2017-Apr-08 11:30N 49°06' W 004°51'917.1
2017-Apr-08 11:00N 49°02' W 005°02'816.9
2017-Apr-08 10:30N 48°57' W 005°13'816.7
2017-Apr-08 10:00N 48°53' W 005°24'816.5
2017-Apr-08 09:31N 48°48' W 005°35'1116.1
2017-Apr-08 08:49N 48°39' W 005°45'516.6
2017-Apr-08 08:30N 48°35' W 005°48'815.7
2017-Apr-08 08:00N 48°27' W 005°48'1817.4
2017-Apr-08 06:57N 48°11' W 005°34'1117.3
2017-Apr-08 06:20N 48°02' W 005°26'617.1
2017-Apr-08 06:00N 47°57' W 005°22'817.2
2017-Apr-08 05:31N 47°51' W 005°12'917.9
2017-Apr-08 05:01N 47°46' W 005°01'917.7
2017-Apr-08 04:30N 47°41' W 004°51'917.8
2017-Apr-08 04:00N 47°36' W 004°40'1218.1
2017-Apr-08 03:20N 47°29' W 004°25'617.6
2017-Apr-08 03:00N 47°25' W 004°18'917.9
2017-Apr-08 02:30N 47°20' W 004°08'917.9
2017-Apr-08 02:00N 47°14' W 003°57'918.0
2017-Apr-08 01:31N 47°09' W 003°47'917.9
2017-Apr-08 01:01N 47°04' W 003°36'917.9
2017-Apr-08 00:30N 46°59' W 003°25'917.9
2017-Apr-08 00:01N 46°54' W 003°14'917.9
2017-Apr-07 23:30N 46°49' W 003°03'1018.4
2017-Apr-07 22:59N 46°43' W 002°52'1018.0
2017-Apr-07 22:26N 46°38' W 002°40'817.5
2017-Apr-07 21:59N 46°33' W 002°30'917.9
2017-Apr-07 21:30N 46°29' W 002°20'917.8
2017-Apr-07 21:00N 46°23' W 002°10'917.8
2017-Apr-07 20:30N 46°18' W 001°59'917.8
2017-Apr-07 20:00N 46°13' W 001°49'917.2
2017-Apr-07 19:30N 46°08' W 001°39'918.7
2017-Apr-07 19:00N 46°07' W 001°25'714.4
2017-Apr-07 18:30N 46°08' W 001°15'2 3.0
2017-Apr-07 18:00N 46°09' W 001°14'0 0.0
2017-Apr-07 17:30N 46°09' W 001°14'0 0.0
2017-Apr-07 17:00N 46°09' W 001°14'0 0.0
2017-Apr-07 16:29N 46°09' W 001°14'0 0.0
2017-Apr-07 15:59N 46°09' W 001°14'0 0.0
2017-Apr-07 15:29N 46°09' W 001°14'0 0.0
2017-Apr-07 14:59N 46°09' W 001°14'0 0.0
2017-Apr-07 13:59N 46°09' W 001°14'0 0.0
2017-Apr-07 13:29N 46°09' W 001°14'0 0.0
2017-Apr-07 12:59N 46°09' W 001°14'0 0.0
2017-Apr-07 12:29N 46°09' W 001°14'0 0.0
2017-Apr-07 11:59N 46°09' W 001°14'0 0.1
2017-Apr-07 11:31N 46°09' W 001°14'2 4.9
2017-Apr-07 11:01N 46°07' W 001°15'611.6
2017-Apr-07 10:30N 46°06' W 001°24'918.1
2017-Apr-07 10:00N 46°08' W 001°37'917.4
2017-Apr-07 09:30N 46°07' W 001°49'917.3
2017-Apr-07 09:00N 46°06' W 002°02'6417.0
2017-Apr-07 05:12N 45°55' W 003°33'2217.0
2017-Apr-07 03:55N 45°52' W 004°04'  

Dump ship's entire track history